KPNE/PNE METAR and TAF weather

Enter ICAO airport designator
Station Type Date Time Source
KPNE METAR 2021/05/10 01:29 UTC NOAA

KPNE 100129Z 09008KT 10SM -RA BKN028 OVC100 10/08 A2987 RMK AO2 RAB17 P0000 T01000083


Station Type Date Time Source
KPNE Decoded METAR 2021/05/10 01:29 UTC NOAA

N.E. PHILADELPHIA AIRPORT, PA, United States (KPNE) 40-05N 075-01W 28M
May 09, 2021 - 09:29 PM EDT / 2021.05.10 0129 UTC
Wind: from the E (090 degrees) at 9 MPH (8 KT):0
Visibility: 10 mile(s):0
Sky conditions: overcast
Weather: light rain
Precipitation last hour: A trace
Temperature: 50.0 F (10.0 C)
Dew Point: 46.9 F (8.3 C)
Relative Humidity: 89%
Pressure (altimeter): 29.87 in. Hg (1011 hPa)
ob: KPNE 100129Z 09008KT 10SM -RA BKN028 OVC100 10/08 A2987 RMK AO2 RAB17 P0000 T01000083
cycle: 1

Station Type Date Time Source
KPNE TAF 2021/05/09 18:42 UTC NOAA

TAF KPNE 091740Z 0918/1018 21010KT P6SM SCT030 BKN060
FM092000 17006KT P6SM SCT025 BKN050
FM092300 10008KT P6SM -RA SCT020 OVC040
FM100200 09008KT 6SM -RA BR OVC015
FM100400 VRB04KT 4SM -RA BR OVC015 WS020/24040KT
FM100800 34010KT P6SM BKN015
FM101400 33010G18KT P6SM BKN045

Example: see airport list